createdAt,value
2023-01-25T00:01:03.685Z,0.00
2023-01-25T00:01:25.865Z,0.00
2023-01-25T00:02:26.161Z,0.00
2023-01-25T00:03:26.173Z,0.00
2023-01-25T00:04:26.135Z,0.00
2023-01-25T00:05:26.053Z,0.00
2023-01-25T00:06:28.195Z,0.00
2023-01-25T00:07:25.963Z,0.00
2023-01-25T00:08:26.798Z,0.00
2023-01-25T00:09:26.641Z,0.00
2023-01-25T00:10:26.089Z,0.00
2023-01-25T00:11:26.300Z,0.00
2023-01-25T00:12:26.098Z,0.00
2023-01-25T00:13:25.990Z,0.00
2023-01-25T00:14:26.820Z,0.00
2023-01-25T00:15:26.216Z,0.00
2023-01-25T00:16:26.381Z,0.00
2023-01-25T00:17:26.239Z,0.00
2023-01-25T00:18:27.056Z,0.00
2023-01-25T00:19:27.974Z,0.00
2023-01-25T00:20:28.132Z,0.00
2023-01-25T00:21:26.838Z,0.00
2023-01-25T00:22:26.476Z,0.00
2023-01-25T00:23:25.713Z,0.00
2023-01-25T00:24:26.128Z,0.00
2023-01-25T00:25:32.616Z,0.00
2023-01-25T00:26:26.973Z,0.00
2023-01-25T00:27:26.715Z,0.00
2023-01-25T00:28:27.205Z,0.00
2023-01-25T00:29:28.223Z,0.00
2023-01-25T00:30:25.785Z,0.00
2023-01-25T00:31:27.278Z,0.00
2023-01-25T00:32:27.468Z,0.00
2023-01-25T00:33:28.153Z,0.00
2023-01-25T00:34:25.750Z,0.00
2023-01-25T00:35:28.265Z,0.00
2023-01-25T00:36:28.315Z,0.00
2023-01-25T00:37:27.307Z,0.00
2023-01-25T00:38:29.818Z,0.00
2023-01-25T00:39:36.017Z,0.00
2023-01-25T00:40:26.596Z,0.00
2023-01-25T00:41:34.650Z,0.00
2023-01-25T00:42:26.158Z,0.00
2023-01-25T00:43:25.961Z,0.00
2023-01-25T00:44:25.967Z,0.00
2023-01-25T00:45:30.221Z,0.00
2023-01-25T00:46:28.909Z,0.00
2023-01-25T00:47:25.746Z,0.00
2023-01-25T00:48:25.898Z,0.00
2023-01-25T00:49:25.495Z,0.00
2023-01-25T00:50:25.964Z,0.00
2023-01-25T00:51:26.067Z,0.00
2023-01-25T00:52:25.724Z,0.00
2023-01-25T00:53:25.463Z,0.00
2023-01-25T00:54:27.662Z,0.00
2023-01-25T00:55:25.635Z,0.00
2023-01-25T00:56:25.626Z,0.00
2023-01-25T00:57:26.524Z,0.00
2023-01-25T00:58:25.498Z,0.00
2023-01-25T00:59:27.909Z,0.00
2023-01-25T01:00:27.148Z,0.00
2023-01-25T01:01:25.790Z,0.00
2023-01-25T01:02:28.087Z,0.00
2023-01-25T01:03:25.546Z,0.00
2023-01-25T01:04:25.769Z,0.00
2023-01-25T01:05:25.384Z,0.00
2023-01-25T01:06:25.824Z,0.00
2023-01-25T01:07:25.786Z,0.00
2023-01-25T01:08:25.404Z,0.00
2023-01-25T01:09:25.617Z,0.00
2023-01-25T01:10:26.645Z,0.00
2023-01-25T01:11:50.013Z,0.00
2023-01-25T01:12:25.755Z,0.00
2023-01-25T01:13:25.615Z,0.00
2023-01-25T01:14:27.699Z,0.00
2023-01-25T01:15:25.570Z,0.00
2023-01-25T01:16:26.800Z,0.00
2023-01-25T01:17:34.138Z,0.00
2023-01-25T01:18:26.495Z,0.00
2023-01-25T01:19:26.374Z,0.00
2023-01-25T01:20:27.012Z,0.00
2023-01-25T01:21:25.288Z,0.00
2023-01-25T01:22:25.187Z,0.00
2023-01-25T01:23:25.447Z,0.00
2023-01-25T01:24:25.513Z,0.00
2023-01-25T01:25:25.324Z,0.00
2023-01-25T01:26:25.930Z,0.00
2023-01-25T01:27:24.943Z,0.00
2023-01-25T01:28:25.514Z,0.00
2023-01-25T01:29:25.967Z,0.00
2023-01-25T01:30:25.562Z,0.00
2023-01-25T01:31:25.440Z,0.00
2023-01-25T01:32:25.327Z,0.00
2023-01-25T01:33:25.369Z,0.00
2023-01-25T01:34:25.316Z,0.00
2023-01-25T01:35:29.160Z,0.00
2023-01-25T01:36:25.344Z,0.00
2023-01-25T01:37:27.754Z,0.00
2023-01-25T01:38:25.137Z,0.00
2023-01-25T01:39:25.407Z,0.00
2023-01-25T01:40:25.402Z,0.00
2023-01-25T01:41:25.223Z,0.00
2023-01-25T01:42:30.191Z,0.00
2023-01-25T01:43:25.065Z,0.00
2023-01-25T01:44:25.080Z,0.00
2023-01-25T01:45:30.874Z,0.00
2023-01-25T01:46:25.885Z,0.00
2023-01-25T01:47:27.862Z,0.00
2023-01-25T01:48:25.108Z,0.00
2023-01-25T01:49:25.269Z,0.00
2023-01-25T01:50:25.059Z,0.00
2023-01-25T01:51:25.026Z,0.00
2023-01-25T01:52:24.887Z,0.00
2023-01-25T01:53:25.041Z,0.00
2023-01-25T01:54:25.147Z,0.00
2023-01-25T01:55:25.205Z,0.00
2023-01-25T01:56:30.837Z,0.00
2023-01-25T01:57:24.833Z,0.00
2023-01-25T01:58:24.841Z,0.00
2023-01-25T01:59:25.014Z,0.00
2023-01-25T02:00:24.882Z,0.00
2023-01-25T02:01:24.921Z,0.00
2023-01-25T02:02:26.258Z,0.00
2023-01-25T02:03:24.947Z,0.00
2023-01-25T02:04:25.013Z,0.00
2023-01-25T02:05:27.057Z,0.00
2023-01-25T02:06:24.858Z,0.00
2023-01-25T02:07:25.081Z,0.00
2023-01-25T02:08:26.058Z,0.00
2023-01-25T02:09:29.650Z,0.00
2023-01-25T02:10:26.491Z,0.00
2023-01-25T02:11:24.796Z,0.00
2023-01-25T02:12:24.867Z,0.00
2023-01-25T02:13:25.166Z,0.00
2023-01-25T02:14:24.821Z,0.00
2023-01-25T02:15:24.518Z,0.00
2023-01-25T02:16:24.839Z,0.00
2023-01-25T02:17:24.958Z,0.00
2023-01-25T02:18:27.813Z,0.00
2023-01-25T02:19:29.151Z,0.00
2023-01-25T02:20:25.929Z,0.00
2023-01-25T02:21:24.348Z,0.00
2023-01-25T02:22:24.769Z,0.00
2023-01-25T02:23:29.588Z,0.00
2023-01-25T02:24:24.561Z,1.00
2023-01-25T02:25:26.326Z,1.00
2023-01-25T02:26:24.593Z,1.00
2023-01-25T02:27:24.700Z,1.00
2023-01-25T02:28:24.316Z,1.00
2023-01-25T02:29:24.729Z,1.00
2023-01-25T02:30:24.570Z,1.00
2023-01-25T02:31:24.887Z,1.00
2023-01-25T02:32:26.371Z,1.00
2023-01-25T02:33:24.534Z,1.00
2023-01-25T02:34:25.671Z,1.00
2023-01-25T02:35:24.679Z,1.00
2023-01-25T02:36:24.570Z,1.00
2023-01-25T02:37:24.577Z,1.00
2023-01-25T02:38:24.572Z,1.00
2023-01-25T02:39:24.377Z,1.00
2023-01-25T02:40:24.175Z,1.00
2023-01-25T02:41:26.359Z,1.00
2023-01-25T02:42:24.509Z,1.00
2023-01-25T02:43:24.606Z,1.00
2023-01-25T02:44:24.626Z,1.00
2023-01-25T02:45:24.221Z,1.00
2023-01-25T02:46:24.174Z,1.00
2023-01-25T02:47:24.149Z,1.00
2023-01-25T02:48:24.207Z,1.00
2023-01-25T02:49:24.135Z,1.00
2023-01-25T02:50:24.376Z,1.00
2023-01-25T02:51:25.888Z,1.00
2023-01-25T02:52:24.584Z,1.00
2023-01-25T02:53:24.279Z,1.00
2023-01-25T02:54:25.729Z,1.00
2023-01-25T02:55:24.400Z,1.00
2023-01-25T02:56:24.094Z,1.00
2023-01-25T02:57:24.191Z,1.00
2023-01-25T02:58:24.147Z,1.00
2023-01-25T02:59:24.829Z,1.00
2023-01-25T03:00:24.296Z,1.00
2023-01-25T03:01:24.305Z,1.00
2023-01-25T03:02:26.533Z,1.00
2023-01-25T03:03:24.418Z,1.00
2023-01-25T03:04:24.152Z,1.00
2023-01-25T03:05:24.453Z,1.00
2023-01-25T03:06:24.059Z,1.00
2023-01-25T03:07:24.033Z,1.00
2023-01-25T03:08:23.868Z,1.00
2023-01-25T03:09:23.770Z,1.00
2023-01-25T03:10:23.842Z,1.00
2023-01-25T03:11:24.056Z,1.00
2023-01-25T03:12:23.784Z,1.00
2023-01-25T03:13:24.268Z,1.00
2023-01-25T03:14:23.903Z,1.00
2023-01-25T03:15:23.908Z,1.00
2023-01-25T03:16:24.316Z,1.00
2023-01-25T03:17:23.721Z,1.00
2023-01-25T03:18:23.994Z,1.00
2023-01-25T03:19:23.703Z,1.00
2023-01-25T03:20:23.925Z,1.00
2023-01-25T03:21:23.665Z,1.00
2023-01-25T03:22:23.591Z,1.00
2023-01-25T03:23:23.784Z,1.00
2023-01-25T03:24:23.852Z,1.00
2023-01-25T03:25:23.540Z,1.00
2023-01-25T03:26:23.753Z,1.00
2023-01-25T03:27:23.827Z,1.00
2023-01-25T03:28:23.868Z,1.00
2023-01-25T03:29:23.550Z,1.00
2023-01-25T03:30:23.520Z,1.00
2023-01-25T03:31:23.764Z,1.00
2023-01-25T03:32:23.684Z,1.00
2023-01-25T03:33:23.748Z,1.00
2023-01-25T03:34:23.795Z,1.00
2023-01-25T03:35:23.393Z,1.00
2023-01-25T03:36:23.788Z,1.00
2023-01-25T03:37:23.676Z,1.00
2023-01-25T03:38:23.748Z,1.00
2023-01-25T03:39:23.424Z,1.00
2023-01-25T03:40:23.836Z,1.00
2023-01-25T03:41:23.288Z,1.00
2023-01-25T03:42:23.807Z,1.00
2023-01-25T03:43:23.415Z,1.00
2023-01-25T03:44:23.309Z,1.00
2023-01-25T03:45:23.523Z,1.00
2023-01-25T03:46:24.457Z,1.00
2023-01-25T03:47:23.440Z,1.00
2023-01-25T03:48:23.681Z,1.00
2023-01-25T03:49:23.483Z,1.00
2023-01-25T03:50:23.457Z,1.00
2023-01-25T03:51:23.367Z,1.00
2023-01-25T03:52:23.359Z,1.00
2023-01-25T03:53:23.355Z,1.00
2023-01-25T03:54:23.676Z,1.00
2023-01-25T03:55:23.580Z,1.00
2023-01-25T03:56:23.130Z,1.00
2023-01-25T03:57:23.290Z,1.00
2023-01-25T03:58:23.135Z,1.00
2023-01-25T03:59:23.202Z,1.00
2023-01-25T04:00:23.617Z,1.00
2023-01-25T04:01:23.413Z,1.00
2023-01-25T04:02:23.178Z,1.00
2023-01-25T04:03:23.226Z,1.00
2023-01-25T04:04:23.855Z,1.00
2023-01-25T04:05:23.347Z,1.00
2023-01-25T04:06:23.293Z,1.00
2023-01-25T04:07:23.173Z,1.00
2023-01-25T04:08:23.307Z,1.00
2023-01-25T04:09:23.287Z,1.00
2023-01-25T04:10:23.115Z,1.00
2023-01-25T04:11:23.223Z,1.00
2023-01-25T04:12:22.989Z,1.00
2023-01-25T04:13:23.100Z,1.00
2023-01-25T04:14:38.758Z,1.00
2023-01-25T04:15:23.151Z,1.00
2023-01-25T04:16:22.998Z,1.00
2023-01-25T04:17:23.139Z,1.00
2023-01-25T04:18:22.983Z,1.00
2023-01-25T04:19:22.973Z,1.00
2023-01-25T04:20:22.887Z,1.00
2023-01-25T04:21:22.890Z,1.00
2023-01-25T04:22:22.799Z,1.00
2023-01-25T04:23:22.894Z,1.00
2023-01-25T04:24:22.974Z,1.00
2023-01-25T04:25:22.904Z,1.00
2023-01-25T04:26:22.918Z,1.00
2023-01-25T04:27:22.848Z,1.00
2023-01-25T04:28:22.835Z,1.00
2023-01-25T04:29:28.697Z,1.00
2023-01-25T04:30:23.119Z,1.00
2023-01-25T04:31:23.132Z,1.00
2023-01-25T04:32:22.927Z,1.00
2023-01-25T04:33:22.767Z,1.00
2023-01-25T04:34:36.499Z,1.00
2023-01-25T04:35:22.811Z,1.00
2023-01-25T04:36:22.831Z,1.00
2023-01-25T04:37:22.787Z,1.00
2023-01-25T04:38:22.938Z,1.00
2023-01-25T04:39:22.805Z,1.00
2023-01-25T04:40:22.820Z,1.00
2023-01-25T04:41:22.734Z,1.00
2023-01-25T04:42:22.722Z,1.00
2023-01-25T04:43:22.634Z,1.00
2023-01-25T04:44:22.679Z,1.00
2023-01-25T04:45:22.637Z,1.00
2023-01-25T04:46:22.605Z,1.00
2023-01-25T04:47:22.640Z,1.00
2023-01-25T04:48:22.645Z,1.00
2023-01-25T04:49:22.559Z,1.00
2023-01-25T04:50:22.513Z,1.00
2023-01-25T04:51:22.566Z,1.00
2023-01-25T04:52:22.471Z,1.00
2023-01-25T04:53:22.475Z,1.00
2023-01-25T04:54:22.488Z,1.00
2023-01-25T04:55:22.434Z,1.00
2023-01-25T04:56:22.398Z,1.00
2023-01-25T04:57:22.440Z,1.00
2023-01-25T04:58:22.363Z,1.00
2023-01-25T04:59:22.457Z,1.00
2023-01-25T05:00:22.421Z,1.00
2023-01-25T05:01:22.458Z,1.00
2023-01-25T05:02:22.401Z,1.00
2023-01-25T05:03:22.291Z,1.00
2023-01-25T05:04:22.346Z,1.00
2023-01-25T05:05:22.356Z,1.00
2023-01-25T05:06:22.371Z,1.00
2023-01-25T05:07:22.255Z,1.00
2023-01-25T05:08:22.299Z,1.00
2023-01-25T05:09:22.281Z,1.00
2023-01-25T05:10:22.274Z,1.00
2023-01-25T05:11:22.296Z,1.00
2023-01-25T05:12:22.291Z,1.00
2023-01-25T05:13:22.259Z,1.00
2023-01-25T05:14:22.198Z,1.00
2023-01-25T05:15:22.251Z,1.00
2023-01-25T05:16:22.269Z,1.00
2023-01-25T05:17:22.165Z,1.00
2023-01-25T05:18:22.181Z,1.00
2023-01-25T05:19:22.135Z,1.00
2023-01-25T05:20:22.146Z,1.00
2023-01-25T05:21:22.112Z,1.00
2023-01-25T05:22:22.102Z,1.00
2023-01-25T05:23:22.113Z,1.00
2023-01-25T05:24:22.321Z,1.00
2023-01-25T05:25:22.093Z,1.00
2023-01-25T05:26:22.113Z,1.00
2023-01-25T05:27:22.104Z,1.00
2023-01-25T05:28:22.122Z,1.00
2023-01-25T05:29:22.118Z,1.00
2023-01-25T05:30:22.145Z,1.00
2023-01-25T05:31:22.138Z,1.00
2023-01-25T05:32:22.045Z,1.00
2023-01-25T05:33:22.074Z,1.00
2023-01-25T05:34:22.064Z,1.00
2023-01-25T05:35:21.995Z,1.00
2023-01-25T05:36:21.963Z,1.00
2023-01-25T05:37:22.027Z,1.00
2023-01-25T05:38:21.977Z,1.00
2023-01-25T05:39:21.989Z,1.00
2023-01-25T05:40:21.988Z,1.00
2023-01-25T05:41:21.979Z,1.00
2023-01-25T05:42:22.012Z,1.00
2023-01-25T05:43:21.910Z,1.00
2023-01-25T05:44:21.958Z,1.00
2023-01-25T05:45:21.913Z,1.00
2023-01-25T05:46:21.985Z,1.00
2023-01-25T05:47:21.850Z,1.00
2023-01-25T05:48:21.842Z,1.00
2023-01-25T05:49:21.846Z,1.00
2023-01-25T05:50:21.790Z,1.00
2023-01-25T05:51:21.800Z,1.00
2023-01-25T05:52:21.814Z,1.00
2023-01-25T05:53:21.756Z,1.00
2023-01-25T05:54:21.768Z,1.00
2023-01-25T05:55:21.789Z,1.00
2023-01-25T05:56:21.795Z,1.00
2023-01-25T05:57:21.787Z,1.00
2023-01-25T05:58:21.742Z,1.00
2023-01-25T05:59:21.746Z,1.00
2023-01-25T06:00:21.710Z,1.00
2023-01-25T06:01:21.731Z,1.00
2023-01-25T06:02:21.761Z,1.00
2023-01-25T06:03:21.784Z,1.00
2023-01-25T06:04:21.674Z,1.00
2023-01-25T06:05:21.688Z,1.00
2023-01-25T06:06:21.636Z,1.00
2023-01-25T06:07:23.380Z,1.00
2023-01-25T06:08:21.599Z,1.00
2023-01-25T06:09:21.610Z,1.00
2023-01-25T06:10:21.610Z,1.00
2023-01-25T06:11:21.567Z,1.00
2023-01-25T06:12:21.604Z,1.00
2023-01-25T06:13:21.815Z,1.00
2023-01-25T06:14:21.545Z,1.00
2023-01-25T06:15:21.594Z,1.00
2023-01-25T06:16:21.622Z,1.00
2023-01-25T06:17:21.505Z,1.00
2023-01-25T06:18:23.100Z,1.00
2023-01-25T06:19:21.535Z,1.00
2023-01-25T06:20:21.478Z,1.00
2023-01-25T06:21:21.485Z,1.00
2023-01-25T06:22:21.493Z,1.00
2023-01-25T06:23:21.476Z,1.00
2023-01-25T06:24:21.500Z,1.00
2023-01-25T06:25:21.428Z,1.00
2023-01-25T06:26:21.509Z,1.00
2023-01-25T06:27:21.421Z,1.00
2023-01-25T06:28:21.382Z,1.00
2023-01-25T06:29:21.387Z,1.00
2023-01-25T06:30:21.374Z,1.00
2023-01-25T06:31:21.466Z,1.00
2023-01-25T06:32:21.444Z,1.00
2023-01-25T06:33:21.358Z,1.00
2023-01-25T06:34:21.319Z,1.00
2023-01-25T06:35:21.331Z,1.00
2023-01-25T06:36:21.327Z,1.00
2023-01-25T06:37:21.315Z,1.00
2023-01-25T06:38:21.348Z,1.00
2023-01-25T06:39:21.319Z,1.00
2023-01-25T06:40:21.256Z,1.00
2023-01-25T06:41:21.275Z,1.00
2023-01-25T06:42:21.250Z,1.00
2023-01-25T06:43:21.253Z,1.00
2023-01-25T06:44:21.227Z,1.00
2023-01-25T06:45:21.267Z,1.00
2023-01-25T06:46:21.294Z,1.00
2023-01-25T06:47:21.187Z,1.00
2023-01-25T06:48:21.386Z,1.00
2023-01-25T06:49:21.193Z,1.00
2023-01-25T06:50:21.163Z,1.00
2023-01-25T06:51:21.200Z,1.00
2023-01-25T06:52:21.156Z,1.00
2023-01-25T06:53:21.125Z,1.00
2023-01-25T06:54:21.234Z,1.00
2023-01-25T06:55:21.170Z,1.00
2023-01-25T06:56:21.134Z,1.00
2023-01-25T06:57:21.149Z,1.00
2023-01-25T06:58:21.052Z,1.00
2023-01-25T06:59:21.100Z,1.00
2023-01-25T07:00:21.070Z,1.00
2023-01-25T07:01:21.153Z,1.00
2023-01-25T07:02:21.087Z,1.00
2023-01-25T07:03:21.058Z,1.00
2023-01-25T07:04:21.015Z,1.00
2023-01-25T07:05:21.008Z,1.00
2023-01-25T07:06:21.004Z,1.00
2023-01-25T07:07:20.992Z,1.00
2023-01-25T07:08:21.027Z,1.00
2023-01-25T07:09:21.033Z,1.00
2023-01-25T07:10:20.911Z,1.00
2023-01-25T07:11:20.939Z,1.00
2023-01-25T07:12:20.936Z,1.00
2023-01-25T07:13:20.934Z,1.00
2023-01-25T07:14:20.944Z,1.00
2023-01-25T07:15:20.908Z,1.00
2023-01-25T07:16:20.908Z,1.00
2023-01-25T07:17:20.876Z,1.00
2023-01-25T07:18:20.865Z,1.00
2023-01-25T07:19:20.938Z,1.00
2023-01-25T07:20:20.837Z,1.00
2023-01-25T07:21:20.843Z,1.00
2023-01-25T07:22:20.854Z,1.00
2023-01-25T07:23:20.794Z,1.00
2023-01-25T07:24:21.057Z,1.00
2023-01-25T07:25:20.804Z,1.00
2023-01-25T07:26:20.813Z,1.00
2023-01-25T07:27:20.819Z,1.00
2023-01-25T07:28:20.790Z,1.00
2023-01-25T07:29:20.792Z,1.00
2023-01-25T07:30:20.797Z,1.00
2023-01-25T07:31:20.971Z,1.00
2023-01-25T07:32:20.713Z,1.00
2023-01-25T07:33:20.723Z,1.00
2023-01-25T07:34:20.769Z,1.00
2023-01-25T07:35:20.734Z,1.00
2023-01-25T07:36:20.737Z,1.00
2023-01-25T07:37:20.638Z,1.00
2023-01-25T07:38:20.688Z,1.00
2023-01-25T07:39:20.660Z,1.00
2023-01-25T07:40:20.810Z,1.00
2023-01-25T07:41:20.616Z,1.00
2023-01-25T07:42:20.712Z,1.00
2023-01-25T07:43:20.623Z,1.00
2023-01-25T07:44:20.585Z,1.00
2023-01-25T07:45:20.628Z,1.00
2023-01-25T07:46:20.643Z,1.00
2023-01-25T07:47:20.568Z,1.00
2023-01-25T07:48:20.589Z,1.00
2023-01-25T07:49:20.556Z,1.00
2023-01-25T07:50:20.570Z,1.00
2023-01-25T07:51:20.574Z,1.00
2023-01-25T07:52:20.573Z,1.00
2023-01-25T07:53:20.482Z,1.00
2023-01-25T07:54:20.524Z,1.00
2023-01-25T07:55:20.500Z,1.00
2023-01-25T07:56:20.448Z,1.00
2023-01-25T07:57:20.506Z,1.00
2023-01-25T07:58:20.419Z,1.00
2023-01-25T07:59:20.424Z,1.00
2023-01-25T08:00:20.422Z,1.00
2023-01-25T08:01:20.429Z,1.00
2023-01-25T08:02:20.436Z,1.00
2023-01-25T08:03:20.444Z,1.00
2023-01-25T08:04:20.414Z,1.00
2023-01-25T08:05:20.459Z,0.00
2023-01-25T08:06:20.463Z,0.00
2023-01-25T08:07:20.407Z,0.00
2023-01-25T08:08:21.030Z,0.00
2023-01-25T08:09:20.376Z,0.00
2023-01-25T08:10:20.387Z,0.00
2023-01-25T08:11:20.352Z,0.00
2023-01-25T08:12:20.403Z,0.00
2023-01-25T08:13:20.345Z,0.00
2023-01-25T08:14:20.319Z,0.00
2023-01-25T08:15:20.351Z,0.00
2023-01-25T08:16:20.326Z,0.00
2023-01-25T08:17:20.277Z,0.00
2023-01-25T08:18:20.467Z,0.00
2023-01-25T08:19:20.253Z,0.00
2023-01-25T08:20:20.365Z,0.00
2023-01-25T08:21:20.259Z,0.00
2023-01-25T08:22:20.269Z,0.00
2023-01-25T08:23:20.390Z,0.00
2023-01-25T08:24:21.068Z,0.00
2023-01-25T08:25:20.187Z,1.00
2023-01-25T08:26:20.320Z,1.00
2023-01-25T08:27:20.207Z,0.00
2023-01-25T08:28:20.216Z,0.00
2023-01-25T08:29:20.216Z,0.00
2023-01-25T08:30:20.120Z,2.00
2023-01-25T08:31:20.221Z,1.00
2023-01-25T08:32:20.074Z,1.00
2023-01-25T08:33:20.077Z,0.00
2023-01-25T08:34:20.178Z,0.00
2023-01-25T08:35:20.044Z,2.00
2023-01-25T08:36:20.045Z,1.00
2023-01-25T08:37:20.013Z,1.00
2023-01-25T08:38:20.055Z,1.00
2023-01-25T08:39:20.027Z,5.00
2023-01-25T08:40:20.020Z,4.00
2023-01-25T08:41:19.993Z,4.00
2023-01-25T08:42:20.999Z,5.00
2023-01-25T08:43:19.993Z,4.00
2023-01-25T08:44:19.993Z,1.00
2023-01-25T08:45:20.551Z,2.00
2023-01-25T08:46:19.933Z,3.00
2023-01-25T08:47:19.898Z,2.00
2023-01-25T08:48:19.919Z,6.00
2023-01-25T08:49:19.871Z,6.00
2023-01-25T08:50:19.880Z,7.00
2023-01-25T08:51:19.843Z,8.00
2023-01-25T08:52:21.844Z,8.00
2023-01-25T08:53:19.869Z,9.00
2023-01-25T08:54:19.928Z,8.00
2023-01-25T08:55:19.868Z,8.00
2023-01-25T08:56:19.868Z,14.00
2023-01-25T08:57:20.450Z,10.00
2023-01-25T08:58:19.771Z,10.00
2023-01-25T08:59:19.766Z,12.00
2023-01-25T09:00:19.820Z,14.00
2023-01-25T09:01:19.749Z,13.00
2023-01-25T09:02:19.827Z,13.00
2023-01-25T09:03:19.753Z,14.00
2023-01-25T09:04:19.804Z,13.00
2023-01-25T09:05:19.708Z,15.00
2023-01-25T09:06:19.798Z,15.00
2023-01-25T09:07:19.759Z,17.00
2023-01-25T09:08:19.721Z,19.00
2023-01-25T09:09:19.672Z,19.00
2023-01-25T09:10:19.681Z,21.00
2023-01-25T09:11:19.680Z,21.00
2023-01-25T09:12:19.701Z,21.00
2023-01-25T09:13:19.702Z,22.00
2023-01-25T09:14:19.662Z,23.00
2023-01-25T09:15:19.707Z,22.00
2023-01-25T09:16:19.608Z,22.00
2023-01-25T09:17:19.617Z,21.00
2023-01-25T09:18:19.674Z,23.00
2023-01-25T09:19:19.595Z,28.00
2023-01-25T09:20:19.544Z,26.00
2023-01-25T09:21:19.548Z,24.00
2023-01-25T09:22:19.550Z,20.00
2023-01-25T09:23:19.556Z,23.00
2023-01-25T09:24:19.603Z,21.00
2023-01-25T09:25:19.571Z,26.00
2023-01-25T09:26:20.191Z,21.00
2023-01-25T09:27:19.549Z,28.00
2023-01-25T09:28:19.547Z,20.00
2023-01-25T09:29:19.491Z,25.00
2023-01-25T09:30:19.852Z,22.00
2023-01-25T09:31:22.788Z,28.00
2023-01-25T09:32:19.663Z,61.00
2023-01-25T09:33:19.437Z,21.00
2023-01-25T09:34:20.041Z,50.00
2023-01-25T09:35:19.435Z,32.00
2023-01-25T09:36:19.444Z,56.00
2023-01-25T09:37:19.456Z,24.00
2023-01-25T09:38:19.455Z,93.00
2023-01-25T09:39:19.429Z,70.00
2023-01-25T09:40:19.685Z,25.00
2023-01-25T09:41:19.368Z,124.00
2023-01-25T09:42:20.595Z,20.00
2023-01-25T09:43:19.389Z,63.00
2023-01-25T09:44:19.341Z,48.00
2023-01-25T09:45:19.301Z,26.00
2023-01-25T09:46:19.487Z,42.00
2023-01-25T09:47:19.311Z,56.00
2023-01-25T09:48:19.329Z,103.00
2023-01-25T09:49:19.423Z,30.00
2023-01-25T09:50:19.358Z,106.00
2023-01-25T09:51:19.255Z,54.00
2023-01-25T09:52:19.242Z,72.00
2023-01-25T09:53:19.249Z,25.00
2023-01-25T09:54:19.255Z,41.00
2023-01-25T09:55:19.160Z,50.00
2023-01-25T09:56:19.169Z,55.00
2023-01-25T09:57:19.216Z,80.00
2023-01-25T09:58:19.200Z,78.00
2023-01-25T09:59:19.135Z,105.00
2023-01-25T10:00:19.251Z,93.00
2023-01-25T10:01:21.635Z,72.00
2023-01-25T10:02:19.207Z,71.00
2023-01-25T10:03:19.119Z,90.00
2023-01-25T10:04:19.128Z,68.00
2023-01-25T10:05:19.180Z,94.00
2023-01-25T10:06:19.105Z,100.00
2023-01-25T10:07:19.084Z,102.00
2023-01-25T10:08:19.045Z,119.00
2023-01-25T10:09:19.099Z,119.00
2023-01-25T10:10:19.040Z,244.00
2023-01-25T10:11:18.965Z,70.00
2023-01-25T10:12:19.120Z,69.00
2023-01-25T10:13:19.012Z,71.00
2023-01-25T10:14:18.969Z,83.00
2023-01-25T10:15:18.974Z,112.00
2023-01-25T10:16:25.579Z,153.00
2023-01-25T10:17:18.907Z,119.00
2023-01-25T10:18:19.552Z,96.00
2023-01-25T10:19:18.926Z,118.00
2023-01-25T10:20:18.935Z,88.00
2023-01-25T10:21:18.913Z,106.00
2023-01-25T10:22:18.883Z,118.00
2023-01-25T10:23:18.875Z,122.00
2023-01-25T10:24:18.916Z,96.00
2023-01-25T10:25:18.900Z,114.00
2023-01-25T10:26:18.842Z,192.00
2023-01-25T10:27:18.829Z,69.00
2023-01-25T10:28:18.800Z,103.00
2023-01-25T10:29:18.803Z,124.00
2023-01-25T10:30:18.808Z,113.00
2023-01-25T10:31:19.025Z,112.00
2023-01-25T10:32:18.770Z,106.00
2023-01-25T10:33:18.745Z,114.00
2023-01-25T10:34:18.730Z,109.00
2023-01-25T10:35:33.340Z,123.00
2023-01-25T10:36:18.762Z,314.00
2023-01-25T10:37:18.709Z,60.00
2023-01-25T10:38:18.716Z,94.00
2023-01-25T10:39:18.704Z,112.00
2023-01-25T10:40:20.674Z,174.00
2023-01-25T10:41:18.682Z,107.00
2023-01-25T10:42:18.834Z,312.00
2023-01-25T10:43:18.708Z,90.00
2023-01-25T10:44:18.634Z,124.00
2023-01-25T10:45:18.663Z,164.00
2023-01-25T10:46:18.674Z,224.00
2023-01-25T10:47:18.699Z,115.00
2023-01-25T10:48:18.624Z,132.00
2023-01-25T10:49:18.646Z,172.00
2023-01-25T10:50:18.597Z,195.00
2023-01-25T10:51:18.596Z,254.00
2023-01-25T10:52:18.594Z,233.00
2023-01-25T10:53:18.624Z,224.00
2023-01-25T10:54:18.586Z,213.00
2023-01-25T10:55:18.590Z,285.00
2023-01-25T10:56:18.586Z,236.00
2023-01-25T10:57:18.506Z,288.00
2023-01-25T10:58:18.488Z,344.00
2023-01-25T10:59:18.501Z,557.00
2023-01-25T11:00:18.508Z,104.00
2023-01-25T11:01:18.604Z,176.00
2023-01-25T11:02:18.417Z,359.00
2023-01-25T11:03:18.417Z,546.00
2023-01-25T11:04:18.424Z,150.00
2023-01-25T11:05:18.377Z,87.00
2023-01-25T11:06:18.486Z,483.00
2023-01-25T11:07:18.347Z,138.00
2023-01-25T11:08:18.447Z,61.00
2023-01-25T11:09:18.361Z,93.00
2023-01-25T11:10:18.368Z,158.00
2023-01-25T11:11:18.428Z,386.00
2023-01-25T11:12:18.444Z,637.00
2023-01-25T11:13:18.465Z,99.00
2023-01-25T11:14:18.291Z,185.00
2023-01-25T11:15:18.339Z,369.00
2023-01-25T11:16:18.370Z,326.00
2023-01-25T11:17:18.319Z,344.00
2023-01-25T11:18:18.320Z,413.00
2023-01-25T11:19:18.225Z,615.00
2023-01-25T11:20:18.233Z,113.00
2023-01-25T11:21:18.464Z,572.00
2023-01-25T11:22:18.385Z,568.00
2023-01-25T11:23:18.354Z,164.00
2023-01-25T11:24:18.300Z,125.00
2023-01-25T11:25:18.215Z,62.00
2023-01-25T11:26:18.252Z,110.00
2023-01-25T11:27:18.261Z,131.00
2023-01-25T11:28:18.293Z,399.00
2023-01-25T11:29:18.222Z,601.00
2023-01-25T11:30:18.230Z,285.00
2023-01-25T11:31:18.332Z,359.00
2023-01-25T11:32:18.108Z,687.00
2023-01-25T11:33:18.217Z,141.00
2023-01-25T11:34:18.124Z,156.00
2023-01-25T11:35:18.173Z,172.00
2023-01-25T11:36:18.180Z,93.00
2023-01-25T11:37:18.073Z,476.00
2023-01-25T11:38:18.075Z,138.00
2023-01-25T11:39:18.081Z,234.00
2023-01-25T11:40:18.085Z,167.00
2023-01-25T11:41:18.099Z,134.00
2023-01-25T11:42:18.105Z,261.00
2023-01-25T11:43:18.004Z,907.00
2023-01-25T11:44:18.006Z,226.00
2023-01-25T11:45:18.016Z,221.00
2023-01-25T11:46:18.007Z,138.00
2023-01-25T11:47:17.984Z,119.00
2023-01-25T11:48:18.143Z,486.00
2023-01-25T11:49:17.897Z,151.00
2023-01-25T11:50:17.897Z,251.00
2023-01-25T11:51:17.976Z,389.00
2023-01-25T11:52:17.969Z,926.00
2023-01-25T11:53:17.923Z,724.00
2023-01-25T11:54:17.932Z,91.00
2023-01-25T11:55:17.828Z,241.00
2023-01-25T11:56:17.914Z,213.00
2023-01-25T11:57:17.849Z,219.00
2023-01-25T11:58:17.907Z,164.00
2023-01-25T11:59:17.913Z,116.00
2023-01-25T12:00:17.989Z,83.00
2023-01-25T12:01:17.842Z,170.00
2023-01-25T12:02:17.774Z,551.00
2023-01-25T12:03:17.844Z,622.00
2023-01-25T12:04:17.959Z,615.00
2023-01-25T12:05:21.915Z,614.00
2023-01-25T12:06:17.799Z,571.00
2023-01-25T12:07:17.777Z,458.00
2023-01-25T12:08:17.774Z,468.00
2023-01-25T12:09:17.783Z,980.00
2023-01-25T12:10:17.890Z,263.00
2023-01-25T12:11:17.738Z,143.00
2023-01-25T12:12:17.741Z,260.00
2023-01-25T12:13:17.741Z,205.00
2023-01-25T12:14:17.715Z,115.00
2023-01-25T12:15:17.675Z,229.00
2023-01-25T12:16:17.689Z,825.00
2023-01-25T12:17:17.740Z,144.00
2023-01-25T12:18:17.844Z,119.00
2023-01-25T12:19:17.577Z,369.00
2023-01-25T12:20:17.604Z,327.00
2023-01-25T12:21:30.651Z,200.00
2023-01-25T12:22:17.606Z,106.00
2023-01-25T12:23:17.570Z,434.00
2023-01-25T12:24:17.601Z,113.00
2023-01-25T12:25:17.604Z,367.00
2023-01-25T12:26:17.587Z,249.00
2023-01-25T12:27:17.596Z,227.00
2023-01-25T12:28:17.607Z,200.00
2023-01-25T12:29:17.489Z,108.00
2023-01-25T12:30:17.504Z,196.00
2023-01-25T12:31:17.583Z,670.00
2023-01-25T12:32:17.548Z,996.00
2023-01-25T12:33:17.532Z,715.00
2023-01-25T12:34:17.540Z,250.00
2023-01-25T12:35:17.446Z,192.00
2023-01-25T12:36:17.451Z,107.00
2023-01-25T12:37:17.456Z,547.00
2023-01-25T12:38:17.466Z,127.00
2023-01-25T12:39:18.240Z,676.00
2023-01-25T12:40:17.415Z,204.00
2023-01-25T12:41:17.512Z,429.00
2023-01-25T12:42:17.386Z,193.00
2023-01-25T12:43:17.400Z,108.00
2023-01-25T12:44:17.500Z,202.00
2023-01-25T12:45:17.439Z,1012.00
2023-01-25T12:46:17.581Z,114.00
2023-01-25T12:47:17.313Z,436.00
2023-01-25T12:48:17.463Z,254.00
2023-01-25T12:49:17.461Z,120.00
2023-01-25T12:50:17.385Z,250.00
2023-01-25T12:51:17.360Z,759.00
2023-01-25T12:52:17.256Z,1029.00
2023-01-25T12:53:17.260Z,131.00
2023-01-25T12:54:17.394Z,189.00
2023-01-25T12:55:17.293Z,684.00
2023-01-25T12:56:17.288Z,631.00
2023-01-25T12:57:17.280Z,1333.00
2023-01-25T12:58:18.296Z,242.00
2023-01-25T12:59:17.195Z,800.00
2023-01-25T13:00:17.310Z,727.00
2023-01-25T13:01:17.254Z,1252.00
2023-01-25T13:02:17.280Z,581.00
2023-01-25T13:03:17.225Z,247.00
2023-01-25T13:04:17.132Z,715.00